SESA/SNC METAR and TAF weather

Enter ICAO airport designator
Station Type Date Time Source
SESA METAR 2021/09/15 23:00 UTC NOAA

SESA 152300Z 25010KT 9999 OVC010 22/20 Q1011 RMK A2987


Station Type Date Time Source
SESA Decoded METAR 2021/09/15 23:00 UTC NOAA

Salinas / General Ulpiano Paez, Ecuador (SESA) 02-12S 080-59W 8M
Sep 15, 2021 - 07:00 PM EDT / 2021.09.15 2300 UTC
Wind: from the WSW (250 degrees) at 12 MPH (10 KT):0
Visibility: greater than 7 mile(s):0
Sky conditions: overcast
Temperature: 71 F (22 C)
Dew Point: 68 F (20 C)
Relative Humidity: 88%
Pressure (altimeter): 29.85 in. Hg (1011 hPa)
ob: SESA 152300Z 25010KT 9999 OVC010 22/20 Q1011 RMK A2987
cycle: 23

Station Type Date Time Source
SESA TAF UTC NOAA

Error!

Example: see airport list